createdAt,value
2023-02-05T00:01:44.217Z,-1.76
2023-02-05T00:04:14.835Z,-1.81
2023-02-05T00:06:45.838Z,-1.86
2023-02-05T00:09:16.540Z,-1.90
2023-02-05T00:11:47.138Z,-1.91
2023-02-05T00:14:17.794Z,-1.87
2023-02-05T00:16:49.192Z,-1.83
2023-02-05T00:19:20.146Z,-1.78
2023-02-05T00:21:51.066Z,-1.75
2023-02-05T00:24:20.303Z,-1.72
2023-02-05T00:26:50.986Z,-1.73
2023-02-05T00:29:21.688Z,-1.75
2023-02-05T00:31:52.490Z,-1.76
2023-02-05T00:34:23.137Z,-1.78
2023-02-05T00:36:53.823Z,-1.80
2023-02-05T00:39:24.453Z,-1.79
2023-02-05T00:41:55.064Z,-1.79
2023-02-05T00:44:26.132Z,-1.78
2023-02-05T00:46:55.225Z,-1.80
2023-02-05T00:49:25.933Z,-1.83
2023-02-05T00:51:56.672Z,-1.88
2023-02-05T00:54:27.411Z,-1.94
2023-02-05T00:56:58.087Z,-1.96
2023-02-05T00:59:28.839Z,-1.99
2023-02-05T01:01:59.479Z,-2.04
2023-02-05T01:04:30.077Z,-2.09
2023-02-05T01:07:00.908Z,-2.15
2023-02-05T01:09:31.553Z,-2.17
2023-02-05T01:12:02.351Z,-2.14
2023-02-05T01:14:32.999Z,-2.12
2023-02-05T01:17:03.778Z,-2.11
2023-02-05T01:19:36.284Z,-2.14
2023-02-05T01:22:07.500Z,-2.15
2023-02-05T01:24:38.533Z,-2.16
2023-02-05T01:27:09.420Z,-2.19
2023-02-05T01:29:40.066Z,-2.18
2023-02-05T01:32:11.261Z,-2.16
2023-02-05T01:34:42.001Z,-2.13
2023-02-05T01:37:12.725Z,-2.13
2023-02-05T01:39:43.523Z,-2.11
2023-02-05T01:42:20.417Z,-2.07
2023-02-05T01:45:21.567Z,-2.06
2023-02-05T01:47:54.108Z,-2.05
2023-02-05T01:50:29.587Z,-2.06
2023-02-05T01:53:09.798Z,-2.08
2023-02-05T01:55:45.046Z,-2.12
2023-02-05T01:58:16.251Z,-2.11
2023-02-05T02:00:48.129Z,-2.10
2023-02-05T02:03:19.072Z,-2.09
2023-02-05T02:05:49.800Z,-2.10
2023-02-05T02:08:20.455Z,-2.14
2023-02-05T02:10:51.470Z,-2.14
2023-02-05T02:13:23.741Z,-2.14
2023-02-05T02:15:55.430Z,-2.14
2023-02-05T02:18:27.882Z,-2.12
2023-02-05T02:21:19.851Z,-2.10
2023-02-05T02:24:12.628Z,-2.09
2023-02-05T02:27:06.005Z,-2.08
2023-02-05T02:29:47.177Z,-2.08
2023-02-05T02:32:19.263Z,-2.10
2023-02-05T02:34:54.705Z,-2.12
2023-02-05T02:37:30.615Z,-2.10
2023-02-05T02:40:16.037Z,-2.10
2023-02-05T02:42:51.328Z,-2.12
2023-02-05T02:45:27.819Z,-2.13
2023-02-05T02:48:00.444Z,-2.14
2023-02-05T02:50:34.572Z,-2.14
2023-02-05T02:53:08.852Z,-2.17
2023-02-05T02:55:43.610Z,-2.19
2023-02-05T02:58:22.438Z,-2.21
2023-02-05T03:00:53.890Z,-2.23
2023-02-05T03:03:27.708Z,-2.26
2023-02-05T03:06:00.943Z,-2.29
2023-02-05T03:08:36.586Z,-2.34
2023-02-05T03:11:12.482Z,-2.37
2023-02-05T03:13:44.652Z,-2.39
2023-02-05T03:16:19.740Z,-2.41
2023-02-05T03:18:51.369Z,-2.42
2023-02-05T03:21:25.874Z,-2.45
2023-02-05T03:23:56.737Z,-2.47
2023-02-05T03:26:30.331Z,-2.51
2023-02-05T03:29:03.853Z,-2.53
2023-02-05T03:31:42.795Z,-2.54
2023-02-05T03:34:26.269Z,-2.55
2023-02-05T03:37:07.106Z,-2.61
2023-02-05T03:39:53.526Z,-2.65
2023-02-05T03:42:33.685Z,-2.66
2023-02-05T03:45:18.970Z,-2.67
2023-02-05T03:48:02.687Z,-2.70
2023-02-05T03:50:40.630Z,-2.70
2023-02-05T03:53:19.901Z,-2.72
2023-02-05T03:55:55.718Z,-2.73
2023-02-05T03:58:31.853Z,-2.71
2023-02-05T04:01:03.397Z,-2.70
2023-02-05T04:03:34.240Z,-2.71
2023-02-05T04:06:06.018Z,-2.74
2023-02-05T04:08:36.770Z,-2.78
2023-02-05T04:11:07.525Z,-2.81
2023-02-05T04:13:38.395Z,-2.80
2023-02-05T04:16:09.030Z,-2.82
2023-02-05T04:18:39.700Z,-2.87
2023-02-05T04:21:10.322Z,-2.99
2023-02-05T04:23:41.544Z,-3.08
2023-02-05T04:26:12.218Z,-3.10
2023-02-05T04:28:43.064Z,-3.07
2023-02-05T04:31:14.016Z,-3.07
2023-02-05T04:33:44.764Z,-3.09
2023-02-05T04:36:15.470Z,-3.13
2023-02-05T04:38:46.243Z,-3.12
2023-02-05T04:41:16.993Z,-3.11
2023-02-05T04:43:47.639Z,-3.08
2023-02-05T04:46:18.284Z,-3.05
2023-02-05T04:48:49.036Z,-3.04
2023-02-05T04:51:19.678Z,-3.04
2023-02-05T04:53:50.720Z,-3.04
2023-02-05T04:56:19.778Z,-3.01
2023-02-05T04:58:50.522Z,-3.02
2023-02-05T05:01:22.961Z,-3.05
2023-02-05T05:03:53.654Z,-3.08
2023-02-05T05:06:24.338Z,-3.10
2023-02-05T05:08:55.238Z,-3.07
2023-02-05T05:11:25.844Z,-3.02
2023-02-05T05:13:57.571Z,-2.98
2023-02-05T05:16:28.226Z,-2.96
2023-02-05T05:18:58.968Z,-2.97
2023-02-05T05:21:29.603Z,-2.99
2023-02-05T05:24:00.247Z,-2.99
2023-02-05T05:26:31.048Z,-3.00
2023-02-05T05:29:01.834Z,-3.02
2023-02-05T05:31:32.507Z,-3.04
2023-02-05T05:34:03.165Z,-3.05
2023-02-05T05:36:34.377Z,-3.04
2023-02-05T05:39:05.278Z,-3.09
2023-02-05T05:41:35.891Z,-3.21
2023-02-05T05:44:06.623Z,-3.28
2023-02-05T05:46:38.197Z,-3.35
2023-02-05T05:49:08.850Z,-3.38
2023-02-05T05:51:39.590Z,-3.34
2023-02-05T05:54:10.291Z,-3.30
2023-02-05T05:56:40.907Z,-3.33
2023-02-05T05:59:13.091Z,-3.41
2023-02-05T06:01:43.806Z,-3.42
2023-02-05T06:04:14.976Z,-3.38
2023-02-05T06:06:45.658Z,-3.37
2023-02-05T06:09:16.341Z,-3.37
2023-02-05T06:11:47.061Z,-3.31
2023-02-05T06:14:17.758Z,-3.23
2023-02-05T06:16:48.478Z,-3.20
2023-02-05T06:19:19.262Z,-3.19
2023-02-05T06:21:49.908Z,-3.19
2023-02-05T06:24:20.563Z,-3.16
2023-02-05T06:26:51.249Z,-3.15
2023-02-05T06:29:26.654Z,-3.15
2023-02-05T06:31:57.904Z,-3.15
2023-02-05T06:34:28.812Z,-3.13
2023-02-05T06:36:59.917Z,-3.13
2023-02-05T06:39:29.277Z,-3.16
2023-02-05T06:41:59.964Z,-3.22
2023-02-05T06:44:30.690Z,-3.20
2023-02-05T06:47:02.013Z,-3.19
2023-02-05T06:49:32.731Z,-3.20
2023-02-05T06:52:03.633Z,-3.20
2023-02-05T06:54:34.316Z,-3.19
2023-02-05T06:57:05.105Z,-3.19
2023-02-05T06:59:35.740Z,-3.16
2023-02-05T07:02:06.440Z,-3.13
2023-02-05T07:04:39.728Z,-3.10
2023-02-05T07:07:10.506Z,-3.05
2023-02-05T07:09:41.305Z,-3.00
2023-02-05T07:12:12.087Z,-2.95
2023-02-05T07:14:43.098Z,-2.88
2023-02-05T07:17:14.019Z,-2.80
2023-02-05T07:19:44.749Z,-2.75
2023-02-05T07:22:39.426Z,-2.67
2023-02-05T07:25:10.185Z,-2.58
2023-02-05T07:27:40.891Z,-2.49
2023-02-05T07:30:15.772Z,-2.40
2023-02-05T07:32:46.367Z,-2.31
2023-02-05T07:35:17.311Z,-2.23
2023-02-05T07:37:50.129Z,-2.11
2023-02-05T07:40:21.353Z,-1.99
2023-02-05T07:42:51.942Z,-1.85
2023-02-05T07:45:22.752Z,-1.73
2023-02-05T07:47:53.372Z,-1.61
2023-02-05T07:50:24.083Z,-1.48
2023-02-05T07:52:54.698Z,-1.35
2023-02-05T07:55:25.414Z,-1.22
2023-02-05T07:57:56.052Z,-1.10
2023-02-05T08:00:30.768Z,-1.01
2023-02-05T08:03:01.360Z,-0.89
2023-02-05T08:05:33.004Z,-0.77
2023-02-05T08:08:04.420Z,-0.62
2023-02-05T08:10:35.247Z,-0.47
2023-02-05T08:13:05.917Z,-0.32
2023-02-05T08:15:39.515Z,-0.17
2023-02-05T08:18:10.147Z,-0.05
2023-02-05T08:20:40.811Z,0.12
2023-02-05T08:23:11.467Z,0.23
2023-02-05T08:25:42.185Z,0.30
2023-02-05T08:28:32.839Z,0.42
2023-02-05T08:31:08.620Z,0.59
2023-02-05T08:33:52.283Z,0.69
2023-02-05T08:36:25.591Z,0.81
2023-02-05T08:39:09.247Z,0.95
2023-02-05T08:41:40.198Z,1.05
2023-02-05T08:44:10.815Z,1.12
2023-02-05T08:46:49.637Z,1.21
2023-02-05T08:49:21.140Z,1.33
2023-02-05T08:51:51.853Z,1.45
2023-02-05T08:54:22.513Z,1.52
2023-02-05T08:56:53.446Z,1.52
2023-02-05T08:59:25.052Z,1.62
2023-02-05T09:01:55.780Z,1.64
2023-02-05T09:04:32.193Z,1.71
2023-02-05T09:07:05.111Z,1.75
2023-02-05T09:09:35.797Z,1.90
2023-02-05T09:12:07.039Z,2.10
2023-02-05T09:14:37.745Z,2.33
2023-02-05T09:17:10.730Z,2.43
2023-02-05T09:19:45.396Z,2.47
2023-02-05T09:22:16.158Z,2.62
2023-02-05T09:24:47.223Z,2.76
2023-02-05T09:27:18.033Z,2.98
2023-02-05T09:29:48.789Z,3.19
2023-02-05T09:32:19.433Z,3.38
2023-02-05T09:34:50.207Z,3.47
2023-02-05T09:37:20.847Z,3.57
2023-02-05T09:43:18.641Z,3.67
2023-02-05T09:45:57.775Z,3.68
2023-02-05T09:48:48.666Z,3.72
2023-02-05T09:51:23.174Z,3.75
2023-02-05T09:53:59.731Z,3.80
2023-02-05T09:56:30.451Z,3.85
2023-02-05T09:59:01.573Z,3.90
2023-02-05T10:01:36.130Z,3.91
2023-02-05T10:04:07.092Z,3.82
2023-02-05T10:07:22.405Z,3.76
2023-02-05T10:10:19.484Z,3.76
2023-02-05T10:13:03.618Z,3.67
2023-02-05T10:15:49.930Z,3.54
2023-02-05T10:18:46.669Z,3.35
2023-02-05T10:21:32.300Z,3.26
2023-02-05T10:24:16.303Z,3.23
2023-02-05T10:26:50.869Z,3.12
2023-02-05T10:29:35.458Z,3.12
2023-02-05T10:32:20.685Z,3.12
2023-02-05T10:35:00.367Z,2.97
2023-02-05T10:37:39.000Z,2.95
2023-02-05T10:40:41.561Z,3.09
2023-02-05T10:43:22.696Z,3.20
2023-02-05T10:45:52.464Z,3.45
2023-02-05T10:48:37.178Z,3.58
2023-02-05T10:51:11.593Z,3.54
2023-02-05T10:53:42.713Z,3.65
2023-02-05T10:56:15.613Z,3.84
2023-02-05T10:58:54.399Z,3.89
2023-02-05T11:01:30.305Z,3.93
2023-02-05T11:04:54.628Z,4.09
2023-02-05T11:07:28.536Z,4.04
2023-02-05T11:10:37.113Z,3.93
2023-02-05T11:13:21.260Z,3.89
2023-02-05T11:16:00.532Z,3.82
2023-02-05T11:18:35.635Z,3.93
2023-02-05T11:21:07.455Z,4.04
2023-02-05T11:23:53.651Z,4.19
2023-02-05T11:26:26.590Z,4.07
2023-02-05T11:28:57.247Z,4.15
2023-02-05T11:31:32.351Z,4.23
2023-02-05T11:34:15.412Z,4.05
2023-02-05T11:36:52.397Z,3.78
2023-02-05T11:39:36.484Z,3.73
2023-02-05T11:42:27.956Z,3.70
2023-02-05T11:45:01.301Z,3.50
2023-02-05T11:47:34.624Z,3.44
2023-02-05T11:50:18.905Z,3.43
2023-02-05T11:52:49.868Z,3.54
2023-02-05T11:55:29.748Z,3.50
2023-02-05T11:58:03.953Z,3.30
2023-02-05T12:00:56.110Z,3.16
2023-02-05T12:03:28.088Z,2.99
2023-02-05T12:06:05.948Z,2.89
2023-02-05T12:08:41.903Z,2.83
2023-02-05T12:11:36.650Z,2.68
2023-02-05T12:14:16.675Z,2.68
2023-02-05T12:16:57.086Z,2.63
2023-02-05T12:19:36.641Z,2.64
2023-02-05T12:22:19.780Z,2.65
2023-02-05T12:25:03.313Z,2.67
2023-02-05T12:27:49.487Z,2.70
2023-02-05T12:30:35.641Z,2.78
2023-02-05T12:33:24.263Z,2.88
2023-02-05T12:36:07.843Z,3.06
2023-02-05T12:38:53.030Z,3.27
2023-02-05T12:41:33.719Z,3.49
2023-02-05T12:44:20.078Z,3.67
2023-02-05T12:47:05.919Z,3.67
2023-02-05T12:49:51.513Z,3.74
2023-02-05T12:52:35.576Z,3.69
2023-02-05T12:55:22.650Z,3.62
2023-02-05T12:57:59.040Z,3.63
2023-02-05T13:00:33.746Z,3.68
2023-02-05T13:03:27.402Z,3.72
2023-02-05T13:06:02.175Z,3.49
2023-02-05T13:08:40.861Z,3.28
2023-02-05T13:11:18.641Z,3.24
2023-02-05T13:13:54.532Z,3.18
2023-02-05T13:16:35.960Z,3.12
2023-02-05T13:19:22.579Z,3.03
2023-02-05T13:21:56.313Z,2.96
2023-02-05T13:24:33.968Z,2.95
2023-02-05T13:27:14.627Z,3.01
2023-02-05T13:29:50.470Z,3.02
2023-02-05T13:32:25.007Z,3.04
2023-02-05T13:34:55.917Z,3.21
2023-02-05T13:37:41.392Z,3.27
2023-02-05T13:40:34.661Z,3.31
2023-02-05T13:43:21.947Z,3.47
2023-02-05T13:46:28.579Z,3.58
2023-02-05T13:49:35.255Z,3.65
2023-02-05T13:52:24.924Z,3.68
2023-02-05T13:55:22.622Z,3.70
2023-02-05T13:58:18.139Z,3.70
2023-02-05T14:01:03.827Z,3.70
2023-02-05T14:03:49.964Z,3.68
2023-02-05T14:06:28.556Z,3.66
2023-02-05T14:09:08.585Z,3.63
2023-02-05T14:11:52.037Z,3.56
2023-02-05T14:14:29.086Z,3.46
2023-02-05T14:17:00.717Z,3.40
2023-02-05T14:19:51.752Z,3.36
2023-02-05T14:22:38.115Z,3.22
2023-02-05T14:25:39.351Z,2.97
2023-02-05T14:28:45.918Z,2.79
2023-02-05T14:31:49.618Z,2.70
2023-02-05T14:34:59.783Z,2.70
2023-02-05T14:37:36.831Z,2.70
2023-02-05T14:40:28.629Z,2.74
2023-02-05T14:43:27.257Z,2.75
2023-02-05T14:46:02.492Z,2.76
2023-02-05T14:48:40.291Z,2.76
2023-02-05T14:51:22.142Z,2.74
2023-02-05T14:53:59.464Z,2.69
2023-02-05T14:56:36.378Z,2.66
2023-02-05T14:59:20.964Z,2.67
2023-02-05T15:01:54.282Z,2.65
2023-02-05T15:04:39.147Z,2.55
2023-02-05T15:07:15.535Z,2.53
2023-02-05T15:09:52.625Z,2.54
2023-02-05T15:12:56.210Z,2.53
2023-02-05T15:15:33.652Z,2.48
2023-02-05T15:18:20.397Z,2.43
2023-02-05T15:20:54.662Z,2.42
2023-02-05T15:23:34.594Z,2.38
2023-02-05T15:26:08.083Z,2.35
2023-02-05T15:28:47.194Z,2.26
2023-02-05T15:31:48.078Z,2.19
2023-02-05T15:34:39.603Z,2.11
2023-02-05T15:37:21.132Z,2.06
2023-02-05T15:39:57.032Z,2.00
2023-02-05T15:42:32.524Z,1.93
2023-02-05T15:45:22.688Z,1.87
2023-02-05T15:48:02.287Z,1.81
2023-02-05T15:50:34.490Z,1.76
2023-02-05T15:53:07.837Z,1.70
2023-02-05T15:55:38.580Z,1.65
2023-02-05T15:58:11.914Z,1.62
2023-02-05T16:00:46.340Z,1.54
2023-02-05T16:03:27.112Z,1.47
2023-02-05T16:06:23.894Z,1.42
2023-02-05T16:08:55.534Z,1.39
2023-02-05T16:11:31.809Z,1.35
2023-02-05T16:14:07.677Z,1.30
2023-02-05T16:16:43.327Z,1.26
2023-02-05T16:19:21.178Z,1.21
2023-02-05T16:21:59.104Z,1.17
2023-02-05T16:24:33.585Z,1.13
2023-02-05T16:27:09.215Z,1.10
2023-02-05T16:29:48.543Z,1.07
2023-02-05T16:32:29.009Z,1.04
2023-02-05T16:35:01.942Z,1.02
2023-02-05T16:37:33.362Z,0.92
2023-02-05T16:40:16.531Z,0.79
2023-02-05T16:42:47.421Z,0.72
2023-02-05T16:45:26.317Z,0.71
2023-02-05T16:48:22.708Z,0.70
2023-02-05T16:51:06.344Z,0.67
2023-02-05T16:53:48.730Z,0.63
2023-02-05T16:56:33.645Z,0.56
2023-02-05T16:59:06.517Z,0.54
2023-02-05T17:01:40.314Z,0.52
2023-02-05T17:04:22.247Z,0.50
2023-02-05T17:06:53.690Z,0.44
2023-02-05T17:09:33.321Z,0.37
2023-02-05T17:12:36.825Z,0.31
2023-02-05T17:15:27.854Z,0.26
2023-02-05T17:18:01.225Z,0.19
2023-02-05T17:20:35.051Z,0.17
2023-02-05T17:23:10.996Z,0.15
2023-02-05T17:26:19.605Z,0.11
2023-02-05T17:28:41.922Z,0.06
2023-02-05T17:31:14.279Z,0.08
2023-02-05T17:33:49.601Z,0.11
2023-02-05T17:36:20.501Z,0.13
2023-02-05T17:38:51.901Z,0.14
2023-02-05T17:41:27.129Z,0.14
2023-02-05T17:43:57.865Z,0.13
2023-02-05T17:46:31.322Z,0.14
2023-02-05T17:49:01.984Z,0.11
2023-02-05T17:51:32.604Z,0.07
2023-02-05T17:54:03.726Z,0.03
2023-02-05T17:56:32.778Z,0.00
2023-02-05T17:59:03.658Z,-0.03
2023-02-05T18:01:34.752Z,-0.05
2023-02-05T18:04:05.621Z,-0.07
2023-02-05T18:06:36.776Z,-0.09
2023-02-05T18:09:05.964Z,-0.11
2023-02-05T18:11:37.718Z,-0.14
2023-02-05T18:14:09.731Z,-0.18
2023-02-05T18:16:40.846Z,-0.19
2023-02-05T18:19:10.212Z,-0.22
2023-02-05T18:21:41.260Z,-0.25
2023-02-05T18:24:11.954Z,-0.26
2023-02-05T18:26:42.984Z,-0.33
2023-02-05T18:29:16.563Z,-0.42
2023-02-05T18:31:47.241Z,-0.56
2023-02-05T18:34:18.108Z,-0.58
2023-02-05T18:36:48.979Z,-0.56
2023-02-05T18:39:19.797Z,-0.56
2023-02-05T18:41:51.010Z,-0.55
2023-02-05T18:44:22.160Z,-0.56
2023-02-05T18:46:52.944Z,-0.57
2023-02-05T18:49:23.853Z,-0.63
2023-02-05T18:51:54.758Z,-0.67
2023-02-05T18:54:25.478Z,-0.71
2023-02-05T18:56:58.425Z,-0.73
2023-02-05T18:59:29.357Z,-0.73
2023-02-05T19:02:00.113Z,-0.73
2023-02-05T19:04:35.311Z,-0.71
2023-02-05T19:07:06.543Z,-0.72
2023-02-05T19:09:35.886Z,-0.71
2023-02-05T19:12:07.214Z,-0.79
2023-02-05T19:14:36.581Z,-0.86
2023-02-05T19:17:07.217Z,-0.92
2023-02-05T19:19:37.960Z,-0.91
2023-02-05T19:22:18.645Z,-0.92
2023-02-05T19:24:54.399Z,-0.96
2023-02-05T19:27:25.170Z,-0.94
2023-02-05T19:29:56.152Z,-0.92
2023-02-05T19:32:29.410Z,-0.99
2023-02-05T19:35:00.002Z,-1.08
2023-02-05T19:37:31.078Z,-1.11
2023-02-05T19:40:20.143Z,-1.10
2023-02-05T19:42:56.828Z,-1.12
2023-02-05T19:45:29.453Z,-1.11
2023-02-05T19:48:20.038Z,-1.09
2023-02-05T19:50:50.799Z,-1.09
2023-02-05T19:53:32.054Z,-1.10
2023-02-05T19:56:07.126Z,-1.12
2023-02-05T19:58:41.258Z,-1.15
2023-02-05T20:01:19.385Z,-1.18
2023-02-05T20:03:50.424Z,-1.20
2023-02-05T20:06:25.498Z,-1.20
2023-02-05T20:09:19.548Z,-1.20
2023-02-05T20:11:49.464Z,-1.30
2023-02-05T20:14:20.808Z,-1.34
2023-02-05T20:16:51.578Z,-1.31
2023-02-05T20:19:22.456Z,-1.35
2023-02-05T20:21:56.042Z,-1.41
2023-02-05T20:24:26.809Z,-1.44
2023-02-05T20:26:57.692Z,-1.43
2023-02-05T20:29:28.626Z,-1.43
2023-02-05T20:32:00.180Z,-1.51
2023-02-05T20:34:35.294Z,-1.57
2023-02-05T20:37:08.050Z,-1.62
2023-02-05T20:39:39.992Z,-1.66
2023-02-05T20:42:11.849Z,-1.67
2023-02-05T20:44:43.349Z,-1.66
2023-02-05T20:47:24.980Z,-1.66
2023-02-05T20:49:55.914Z,-1.65
2023-02-05T20:52:27.045Z,-1.67
2023-02-05T20:54:57.695Z,-1.67
2023-02-05T20:57:28.419Z,-1.65
2023-02-05T20:59:59.505Z,-1.66
2023-02-05T21:02:28.916Z,-1.66
2023-02-05T21:04:59.707Z,-1.68
2023-02-05T21:07:31.776Z,-1.68
2023-02-05T21:10:02.858Z,-1.71
2023-02-05T21:12:32.000Z,-1.76
2023-02-05T21:15:03.278Z,-1.83
2023-02-05T21:17:39.757Z,-1.87
2023-02-05T21:20:15.060Z,-1.88
2023-02-05T21:22:45.689Z,-1.88
2023-02-05T21:25:16.642Z,-1.87
2023-02-05T21:27:47.910Z,-1.86
2023-02-05T21:30:19.605Z,-1.92
2023-02-05T21:32:51.719Z,-1.94
2023-02-05T21:35:24.906Z,-1.90
2023-02-05T21:37:55.537Z,-1.85
2023-02-05T21:40:34.478Z,-1.82
2023-02-05T21:43:05.241Z,-1.79
2023-02-05T21:45:37.003Z,-1.78
2023-02-05T21:48:09.432Z,-1.83
2023-02-05T21:50:40.851Z,-1.91
2023-02-05T21:53:11.704Z,-1.95
2023-02-05T21:55:42.391Z,-2.00
2023-02-05T21:58:13.119Z,-2.04
2023-02-05T22:00:43.823Z,-2.09
2023-02-05T22:03:14.470Z,-2.11
2023-02-05T22:05:45.115Z,-2.14
2023-02-05T22:08:15.737Z,-2.16
2023-02-05T22:10:47.681Z,-2.16
2023-02-05T22:13:39.047Z,-2.14
2023-02-05T22:16:11.973Z,-2.12
2023-02-05T22:18:42.777Z,-2.09
2023-02-05T22:21:16.763Z,-2.06
2023-02-05T22:23:49.213Z,-1.99
2023-02-05T22:26:21.328Z,-1.94
2023-02-05T22:28:52.800Z,-1.89
2023-02-05T22:31:23.535Z,-1.83
2023-02-05T22:33:54.274Z,-1.78
2023-02-05T22:36:26.659Z,-1.73
2023-02-05T22:38:57.848Z,-1.68
2023-02-05T22:41:27.826Z,-1.63
2023-02-05T22:44:00.201Z,-1.62
2023-02-05T22:46:33.196Z,-1.64
2023-02-05T22:49:04.429Z,-1.71
2023-02-05T22:51:36.753Z,-1.74
2023-02-05T22:54:10.238Z,-1.78
2023-02-05T22:56:40.893Z,-1.80
2023-02-05T22:59:31.521Z,-1.82
2023-02-05T23:02:02.111Z,-1.95
2023-02-05T23:04:32.785Z,-2.00
2023-02-05T23:07:03.393Z,-1.99
2023-02-05T23:09:37.070Z,-1.97
2023-02-05T23:12:08.150Z,-1.96
2023-02-05T23:14:37.261Z,-1.98
2023-02-05T23:17:07.851Z,-2.00
2023-02-05T23:19:38.511Z,-2.02
2023-02-05T23:22:09.178Z,-2.04
2023-02-05T23:24:41.037Z,-2.06
2023-02-05T23:27:11.698Z,-2.09
2023-02-05T23:29:42.449Z,-2.14
2023-02-05T23:32:11.857Z,-2.18
2023-02-05T23:34:42.585Z,-2.21
2023-02-05T23:37:13.772Z,-2.21
2023-02-05T23:39:44.476Z,-2.21
2023-02-05T23:42:15.107Z,-2.22
2023-02-05T23:44:45.793Z,-2.25
2023-02-05T23:47:16.442Z,-2.25
2023-02-05T23:49:47.141Z,-2.24
2023-02-05T23:52:17.860Z,-2.22
2023-02-05T23:54:48.527Z,-2.17
2023-02-05T23:57:19.153Z,-2.14
2023-02-05T23:59:49.850Z,-2.11
